Weather at Goddard Field

Public forecast

Using degrees Fahrenheit for public forecast. Weather courtesy of forecast.io.

Closest aviation weather report (METAR) to Goddard Field

Closest report is Lawrence Municipal Airport, 5.7 nm (10.5 km) S. Retrieved 2021/05/11 00:54 UTC (56 minutes ago):

KLWM 110054Z 18005KT 10SM OVC095 13/06 A2991 RMK AO2 SLP128 T01330061

Closest aviation forecast (TAF) to Goddard Field

Closest forecast is Manchester-Boston Regional Airport, 14.9 nm (27.6 km) WNW. Retrieved 2021-05-11 00:22 UTC (1 hour ago):

TAF KMHT 102320Z 1100/1124 VRB04KT P6SM SCT100 FM111300 29011G18KT P6SM BKN100